Time;durP1;ratioP1;P1;durP2;ratioP2;P2;SDS_P1;SDS_P2;PMS_P1;PMS_P2;Temp;Humidity;BMP_temperature;BMP_pressure;BME280_temperature;BME280_humidity;BME280_pressure;Samples;Min_cycle;Max_cycle;Signal;HPM_P1;HPM_P2
2023/08/07 00:02:08;;;;;;;10.45;2.40;;;;;;;12.70;100.00;101292.81;5027036;28;20022;-70
2023/08/07 00:04:33;;;;;;;9.48;2.40;;;;;;;12.66;100.00;101288.84;5019908;28;20021;-70
2023/08/07 00:06:58;;;;;;;11.82;2.42;;;;;;;12.63;100.00;101282.03;5024398;28;20022;-70
2023/08/07 00:09:24;;;;;;;9.07;2.50;;;;;;;12.66;100.00;101292.34;5027331;28;20017;-70
2023/08/07 00:11:49;;;;;;;11.50;2.30;;;;;;;12.66;100.00;101294.16;5025263;28;20382;-70
2023/08/07 00:14:14;;;;;;;9.85;2.55;;;;;;;12.66;100.00;101287.00;5027705;28;20018;-70
2023/08/07 00:16:41;;;;;;;12.43;2.28;;;;;;;12.68;100.00;101289.50;5023757;28;20114;-70
2023/08/07 00:19:06;;;;;;;8.98;2.30;;;;;;;12.69;100.00;101291.16;5020819;28;20093;-70
2023/08/07 00:21:31;;;;;;;10.35;2.50;;;;;;;12.71;100.00;101289.13;5028507;28;20620;-69
2023/08/07 00:23:57;;;;;;;12.82;2.70;;;;;;;12.73;100.00;101284.50;5026089;28;20049;-70
2023/08/07 00:26:22;;;;;;;10.93;2.45;;;;;;;12.71;100.00;101292.63;5020697;28;20017;-70
2023/08/07 00:28:47;;;;;;;13.20;2.45;;;;;;;12.71;100.00;101289.13;5026365;28;20025;-70
2023/08/07 00:31:12;;;;;;;11.52;2.30;;;;;;;12.75;100.00;101297.66;5028459;28;20039;-70
2023/08/07 00:33:38;;;;;;;12.02;2.38;;;;;;;12.76;100.00;101297.47;5021196;28;20565;-70
2023/08/07 00:36:03;;;;;;;10.77;2.40;;;;;;;12.81;100.00;101307.59;5022863;28;20037;-70
2023/08/07 00:38:29;;;;;;;12.23;2.67;;;;;;;12.77;100.00;101287.66;5022539;28;20823;-70
2023/08/07 00:40:54;;;;;;;10.02;2.50;;;;;;;12.77;100.00;101298.31;5021884;28;20018;-70
2023/08/07 00:43:19;;;;;;;10.85;2.63;;;;;;;12.77;100.00;101303.63;5031148;28;20567;-70
2023/08/07 00:45:47;;;;;;;11.00;2.30;;;;;;;12.74;100.00;101302.16;5019659;28;20021;-70
2023/08/07 00:48:14;;;;;;;12.40;2.60;;;;;;;12.71;100.00;101299.81;5020221;28;20124;-70
2023/08/07 00:50:42;;;;;;;13.70;2.92;;;;;;;12.72;100.00;101296.13;5017022;28;20056;-70
2023/08/07 00:53:08;;;;;;;15.70;2.60;;;;;;;12.74;100.00;101304.81;5020386;28;20041;-70
2023/08/07 00:55:33;;;;;;;17.55;2.60;;;;;;;12.72;100.00;101293.47;5028160;28;20021;-70
2023/08/07 00:57:59;;;;;;;11.75;2.75;;;;;;;12.73;100.00;101295.16;5017730;28;20029;-70
2023/08/07 01:00:26;;;;;;;12.57;2.45;;;;;;;12.69;100.00;101286.66;5022519;28;20028;-70
2023/08/07 01:02:53;;;;;;;17.73;2.90;;;;;;;12.70;100.00;101274.16;5023418;28;20034;-70
2023/08/07 01:05:19;;;;;;;15.73;2.78;;;;;;;12.73;100.00;101286.34;5021341;28;20016;-70
2023/08/07 01:07:47;;;;;;;17.17;3.22;;;;;;;12.70;100.00;101288.31;5027150;28;20108;-70
2023/08/07 01:10:12;;;;;;;13.82;3.00;;;;;;;12.74;100.00;101286.16;5027529;28;20041;-70
2023/08/07 01:12:50;;;;;;;12.93;2.92;;;;;;;12.74;100.00;101296.00;5019447;28;20022;-70
2023/08/07 01:15:22;;;;;;;13.30;2.50;;;;;;;12.75;100.00;101300.31;5025917;28;20447;-70
2023/08/07 01:17:47;;;;;;;10.63;2.45;;;;;;;12.80;100.00;101303.28;5023722;28;20091;-70
2023/08/07 01:20:14;;;;;;;15.40;2.50;;;;;;;12.82;100.00;101303.94;5020526;28;20029;-69
2023/08/07 01:22:39;;;;;;;13.10;2.90;;;;;;;12.84;100.00;101301.94;5026868;28;20661;-70
2023/08/07 01:25:05;;;;;;;15.20;2.90;;;;;;;12.87;100.00;101305.06;5025833;28;20104;-70
2023/08/07 01:27:36;;;;;;;18.63;3.35;;;;;;;12.90;100.00;101309.22;5020947;28;20387;-70
2023/08/07 01:30:11;;;;;;;17.35;2.80;;;;;;;12.92;100.00;101320.53;5017966;28;20526;-70
2023/08/07 01:32:49;;;;;;;13.60;2.55;;;;;;;12.93;100.00;101316.88;5027119;28;20017;-70
2023/08/07 01:35:16;;;;;;;19.08;3.67;;;;;;;12.94;100.00;101311.34;5023344;28;20549;-70
2023/08/07 01:37:42;;;;;;;16.33;2.97;;;;;;;12.96;100.00;101316.50;5019729;28;20026;-70
2023/08/07 01:40:09;;;;;;;12.73;3.05;;;;;;;12.97;100.00;101323.50;5025233;28;20021;-70
2023/08/07 01:42:36;;;;;;;14.93;2.97;;;;;;;12.95;100.00;101313.03;5028214;28;20017;-70
2023/08/07 01:45:02;;;;;;;11.98;2.60;;;;;;;13.01;100.00;101322.19;5030826;28;20032;-70
2023/08/07 01:47:27;;;;;;;9.75;2.40;;;;;;;12.98;100.00;101323.34;5026724;28;20107;-70
2023/08/07 01:49:52;;;;;;;10.73;2.30;;;;;;;12.92;100.00;101313.38;5022992;28;20630;-70
2023/08/07 01:52:17;;;;;;;14.55;2.97;;;;;;;12.83;100.00;101309.09;5024938;28;20029;-70
2023/08/07 01:54:43;;;;;;;14.07;2.60;;;;;;;12.90;100.00;101330.56;5028029;28;20470;-70
2023/08/07 01:57:08;;;;;;;8.60;2.20;;;;;;;12.71;100.00;101319.28;5027348;28;20030;-69
2023/08/07 01:59:33;;;;;;;10.68;2.60;;;;;;;12.60;100.00;101334.84;5022964;28;20491;-70
2023/08/07 02:01:58;;;;;;;9.43;3.20;;;;;;;12.51;100.00;101331.38;5031028;28;20032;-70
2023/08/07 02:04:24;;;;;;;8.73;2.83;;;;;;;12.46;100.00;101323.06;5025054;28;20047;-70
2023/08/07 02:06:49;;;;;;;16.25;3.30;;;;;;;12.46;100.00;101327.56;5027480;28;20037;-70
2023/08/07 02:09:14;;;;;;;11.65;3.20;;;;;;;12.47;100.00;101348.69;5023433;28;20026;-68
2023/08/07 02:11:40;;;;;;;11.48;2.90;;;;;;;12.48;100.00;101333.56;5027158;28;20022;-68
2023/08/07 02:14:05;;;;;;;9.00;2.67;;;;;;;12.51;100.00;101335.88;5029369;28;20029;-68
2023/08/07 02:16:30;;;;;;;11.38;3.08;;;;;;;12.51;100.00;101339.38;5030792;28;20392;-68
2023/08/07 02:18:55;;;;;;;12.15;2.90;;;;;;;12.52;100.00;101332.19;5025608;28;20018;-68
2023/08/07 02:21:20;;;;;;;12.10;3.42;;;;;;;12.51;100.00;101333.19;5030048;28;20014;-68
2023/08/07 02:23:46;;;;;;;13.30;3.33;;;;;;;12.51;100.00;101333.19;5029625;28;20025;-68
2023/08/07 02:26:11;;;;;;;13.10;3.28;;;;;;;12.49;100.00;101336.03;5029278;28;20245;-68
2023/08/07 02:28:36;;;;;;;12.48;3.42;;;;;;;12.49;100.00;101329.88;5030092;28;20384;-68
2023/08/07 02:31:02;;;;;;;14.20;3.80;;;;;;;12.56;100.00;101333.50;5029618;28;20083;-68
2023/08/07 02:33:30;;;;;;;12.95;3.53;;;;;;;12.58;100.00;101332.34;5030290;28;20394;-68
2023/08/07 02:35:55;;;;;;;12.10;3.80;;;;;;;12.57;100.00;101338.66;5024371;28;20048;-68
2023/08/07 02:38:20;;;;;;;12.40;3.17;;;;;;;12.60;100.00;101337.50;5024311;28;20017;-68
2023/08/07 02:40:45;;;;;;;15.63;3.67;;;;;;;12.61;100.00;101339.16;5025467;28;20458;-68
2023/08/07 02:43:11;;;;;;;14.40;3.33;;;;;;;12.63;100.00;101345.97;5030217;28;20025;-68
2023/08/07 02:45:36;;;;;;;13.70;3.53;;;;;;;12.63;100.00;101345.97;5029516;28;20056;-68
2023/08/07 02:48:01;;;;;;;16.25;3.58;;;;;;;12.61;100.00;101337.31;5028513;28;20079;-68
2023/08/07 02:50:29;;;;;;;15.82;3.67;;;;;;;12.67;100.00;101335.81;5019842;28;20549;-68
2023/08/07 02:52:54;;;;;;;11.13;3.20;;;;;;;12.66;100.00;101337.63;5020979;28;20402;-68
2023/08/07 02:55:20;;;;;;;17.13;3.65;;;;;;;12.69;100.00;101334.63;5030381;28;20032;-68
2023/08/07 02:57:45;;;;;;;15.32;3.15;;;;;;;12.73;100.00;101327.13;5020415;28;20056;-68
2023/08/07 03:00:11;;;;;;;14.85;3.65;;;;;;;12.74;100.00;101327.97;5022580;28;20442;-68
2023/08/07 03:02:36;;;;;;;9.68;2.95;;;;;;;12.75;100.00;101337.63;5029124;28;20108;-68
2023/08/07 03:05:02;;;;;;;17.00;3.13;;;;;;;12.75;100.00;101337.63;5026795;28;20116;-68
2023/08/07 03:07:27;;;;;;;15.52;3.28;;;;;;;12.80;100.00;101337.94;5024068;28;20025;-68
2023/08/07 03:09:52;;;;;;;13.52;3.00;;;;;;;12.79;100.00;101328.28;5028256;28;20467;-68
2023/08/07 03:12:17;;;;;;;18.60;3.50;;;;;;;12.77;100.00;101338.28;5022252;28;20036;-68
2023/08/07 03:14:43;;;;;;;11.20;3.20;;;;;;;12.75;100.00;101341.13;5026821;28;20025;-68
2023/08/07 03:17:08;;;;;;;10.68;3.15;;;;;;;12.79;100.00;101338.94;5031261;28;20080;-68
2023/08/07 03:19:33;;;;;;;11.93;3.22;;;;;;;12.79;100.00;101339.78;5023183;28;20022;-68
2023/08/07 03:21:59;;;;;;;11.27;3.72;;;;;;;12.81;100.00;101326.28;5026415;28;20493;-68
2023/08/07 03:24:24;;;;;;;11.98;3.03;;;;;;;12.84;100.00;101329.41;5024190;28;20021;-68
2023/08/07 03:26:49;;;;;;;17.00;3.50;;;;;;;12.85;100.00;101327.56;5026387;28;20021;-68
2023/08/07 03:29:15;;;;;;;12.77;3.17;;;;;;;12.89;99.88;101323.56;5019895;28;20026;-68
2023/08/07 03:31:40;;;;;;;10.50;3.22;;;;;;;12.89;99.63;101315.56;5029395;28;20025;-68
2023/08/07 03:34:05;;;;;;;16.08;3.40;;;;;;;12.87;99.77;101322.91;5023038;28;20080;-68
2023/08/07 03:36:30;;;;;;;18.45;3.63;;;;;;;12.89;99.25;101334.22;5019671;28;20072;-68
2023/08/07 03:38:56;;;;;;;12.20;3.58;;;;;;;12.91;99.12;101321.53;5020506;28;20064;-68
2023/08/07 03:41:21;;;;;;;9.80;3.35;;;;;;;12.89;98.98;101323.56;5024995;28;20052;-68
2023/08/07 03:43:46;;;;;;;13.02;3.38;;;;;;;12.91;99.13;101327.72;5027932;28;20086;-68
2023/08/07 03:46:11;;;;;;;15.25;3.70;;;;;;;12.93;98.93;101330.19;5029449;28;20487;-68
2023/08/07 03:48:38;;;;;;;13.25;3.45;;;;;;;12.93;98.40;101338.19;5028169;28;20033;-68
2023/08/07 03:51:05;;;;;;;13.82;3.17;;;;;;;12.95;98.61;101329.03;5021697;28;20098;-68
2023/08/07 03:53:30;;;;;;;12.23;3.38;;;;;;;12.97;98.24;101327.00;5020993;28;20025;-68
2023/08/07 03:55:55;;;;;;;17.80;3.55;;;;;;;12.98;97.94;101327.84;5024678;28;20021;-68
2023/08/07 03:58:20;;;;;;;8.65;2.95;;;;;;;12.99;97.82;101338.31;5018189;28;20097;-68
2023/08/07 04:00:46;;;;;;;13.98;3.47;;;;;;;13.03;97.59;101326.34;5021613;28;20593;-68
2023/08/07 04:03:11;;;;;;;14.02;3.17;;;;;;;13.06;97.52;101326.97;5022360;28;20120;-68
2023/08/07 04:05:36;;;;;;;12.63;3.63;;;;;;;13.11;96.93;101325.44;5027732;28;20372;-68
2023/08/07 04:08:01;;;;;;;16.63;3.30;;;;;;;13.08;96.57;101330.31;5020383;28;20034;-68
2023/08/07 04:10:27;;;;;;;14.63;3.13;;;;;;;13.10;96.98;101326.47;5023161;28;20140;-68
2023/08/07 04:12:52;;;;;;;13.52;3.33;;;;;;;13.11;96.63;101330.78;5019056;28;20079;-69
2023/08/07 04:15:17;;;;;;;17.83;2.97;;;;;;;13.10;96.77;101325.63;5021422;28;20498;-68
2023/08/07 04:17:42;;;;;;;11.02;2.75;;;;;;;13.10;96.71;101329.13;5025876;28;20021;-68
2023/08/07 04:20:08;;;;;;;12.75;3.13;;;;;;;13.05;96.96;101328.81;5023375;28;20033;-68
2023/08/07 04:22:34;;;;;;;11.75;2.88;;;;;;;13.08;96.63;101333.81;5023863;28;20021;-68
2023/08/07 04:24:59;;;;;;;15.75;3.17;;;;;;;13.09;96.72;101339.97;5025224;28;20040;-68
2023/08/07 04:27:25;;;;;;;9.50;2.38;;;;;;;13.09;96.45;101330.13;5009901;28;20021;-68
2023/08/07 04:29:50;;;;;;;12.07;2.60;;;;;;;13.05;96.89;101344.00;5024189;28;20017;-68
2023/08/07 04:32:15;;;;;;;8.45;2.53;;;;;;;13.02;97.11;101339.84;5022371;28;20689;-68
2023/08/07 04:34:41;;;;;;;8.80;2.63;;;;;;;12.98;97.73;101335.84;5024578;28;20037;-68
2023/08/07 04:37:06;;;;;;;13.15;2.80;;;;;;;12.98;97.92;101346.50;5020901;28;20040;-68
2023/08/07 04:39:32;;;;;;;13.63;2.88;;;;;;;12.94;98.23;101343.34;5023791;28;20013;-68
2023/08/07 04:41:57;;;;;;;14.50;2.83;;;;;;;12.92;98.53;101337.38;5024096;28;20033;-68
2023/08/07 04:44:22;;;;;;;9.15;3.00;;;;;;;12.90;98.88;101347.38;5031592;28;20032;-68
2023/08/07 04:46:47;;;;;;;11.52;3.03;;;;;;;12.94;98.74;101347.84;5024217;28;20022;-68
2023/08/07 04:49:13;;;;;;;12.23;3.05;;;;;;;12.90;98.91;101346.53;5016190;28;20034;-68
2023/08/07 04:51:38;;;;;;;9.43;3.08;;;;;;;12.93;99.10;101351.53;5019447;28;20487;-68
2023/08/07 04:54:03;;;;;;;8.27;2.53;;;;;;;12.95;98.95;101355.69;5022395;28;20445;-68
2023/08/07 04:56:30;;;;;;;7.60;2.30;;;;;;;12.91;98.83;101338.38;5027304;28;20560;-68
2023/08/07 04:58:56;;;;;;;11.23;2.30;;;;;;;12.96;98.72;101353.84;5022905;28;20105;-68
2023/08/07 05:01:21;;;;;;;10.98;2.70;;;;;;;12.95;98.54;101349.50;5025996;28;20116;-68
2023/08/07 05:03:46;;;;;;;10.38;2.40;;;;;;;12.96;98.54;101352.00;5025037;28;20491;-68
2023/08/07 05:06:11;;;;;;;8.63;2.22;;;;;;;12.95;98.52;101353.00;5023602;28;20030;-68
2023/08/07 05:08:37;;;;;;;8.07;2.50;;;;;;;12.99;98.60;101351.66;5018213;28;20545;-68
2023/08/07 05:11:02;;;;;;;7.97;2.20;;;;;;;13.01;98.36;101367.50;5016505;28;20034;-68
2023/08/07 05:13:27;;;;;;;11.80;2.80;;;;;;;13.05;98.21;101362.66;5026455;28;20382;-68
2023/08/07 05:15:52;;;;;;;10.20;2.58;;;;;;;12.99;98.41;101348.16;5060430;28;20036;-68
2023/08/07 05:18:18;;;;;;;12.60;2.58;;;;;;;13.04;98.77;101364.50;5056549;28;20074;-68
2023/08/07 05:20:43;;;;;;;11.30;2.40;;;;;;;13.05;98.43;101363.50;5042976;28;20049;-68
2023/08/07 05:23:10;;;;;;;8.10;2.45;;;;;;;13.07;98.24;101374.81;5043204;28;20025;-68
2023/08/07 05:25:35;;;;;;;11.20;2.67;;;;;;;13.06;98.60;101378.47;5050373;28;20098;-68
2023/08/07 05:28:01;;;;;;;11.02;2.40;;;;;;;13.08;98.78;101375.63;5047878;28;20487;-68
2023/08/07 05:30:26;;;;;;;11.63;2.63;;;;;;;13.07;98.72;101374.81;5050012;28;20021;-68
2023/08/07 05:32:51;;;;;;;10.02;2.38;;;;;;;13.05;98.83;101386.66;5046642;28;20425;-68
2023/08/07 05:35:17;;;;;;;12.65;2.70;;;;;;;13.02;99.10;101387.84;5046429;28;20037;-68
2023/08/07 05:37:42;;;;;;;9.20;2.60;;;;;;;13.05;99.02;101398.16;5049246;28;20033;-68
2023/08/07 05:40:07;;;;;;;15.80;2.78;;;;;;;13.03;99.02;101401.00;5046426;28;20033;-70
2023/08/07 05:42:32;;;;;;;15.00;2.88;;;;;;;13.00;98.92;101395.97;5048852;28;20680;-70
2023/08/07 05:44:59;;;;;;;13.27;2.63;;;;;;;13.02;99.34;101403.84;5050609;28;20498;-70
2023/08/07 05:47:24;;;;;;;10.52;2.50;;;;;;;13.03;99.33;101408.16;5044184;28;20025;-70
2023/08/07 05:49:49;;;;;;;13.02;2.80;;;;;;;12.99;99.97;101407.66;5042168;28;20047;-70
2023/08/07 05:52:15;;;;;;;13.02;2.90;;;;;;;12.96;100.00;101415.16;5049138;28;20537;-70
2023/08/07 05:54:40;;;;;;;10.50;2.58;;;;;;;12.96;100.00;101415.16;5041004;28;20036;-70
2023/08/07 05:57:06;;;;;;;12.02;2.70;;;;;;;12.94;100.00;101422.50;5047121;28;20112;-70
2023/08/07 05:59:31;;;;;;;10.90;3.00;;;;;;;12.93;100.00;101407.50;5042963;28;20032;-70
2023/08/07 06:01:57;;;;;;;14.93;2.90;;;;;;;12.92;100.00;101419.19;5046500;28;20021;-70
2023/08/07 06:04:22;;;;;;;11.20;2.63;;;;;;;12.87;100.00;101422.34;5040584;28;20040;-70
2023/08/07 06:06:47;;;;;;;16.45;3.30;;;;;;;12.86;100.00;101420.69;5047539;28;20036;-70
2023/08/07 06:09:15;;;;;;;10.85;2.92;;;;;;;12.85;100.00;101419.03;5046627;28;20037;-70
2023/08/07 06:11:40;;;;;;;15.30;2.88;;;;;;;12.85;100.00;101434.19;5050234;28;20494;-70
2023/08/07 06:14:06;;;;;;;11.85;3.30;;;;;;;12.85;100.00;101424.38;5048930;28;20025;-70
2023/08/07 06:16:31;;;;;;;12.90;3.17;;;;;;;12.90;100.00;101435.34;5043249;28;20020;-70
2023/08/07 06:18:57;;;;;;;13.98;3.35;;;;;;;12.90;100.00;101439.84;5047276;28;20038;-70
2023/08/07 06:21:22;;;;;;;10.30;2.90;;;;;;;12.96;100.00;101439.97;5051549;28;20047;-71
2023/08/07 06:23:47;;;;;;;18.10;3.47;;;;;;;13.02;100.00;101443.81;5064178;28;20028;-70
2023/08/07 06:26:13;;;;;;;15.63;3.45;;;;;;;13.06;100.00;101433.66;5065475;28;20095;-70
2023/08/07 06:28:38;;;;;;;13.77;3.20;;;;;;;13.10;100.00;101430.44;5067525;28;20028;-70
2023/08/07 06:31:07;;;;;;;12.50;2.80;;;;;;;13.13;100.00;101440.78;5064573;28;20108;-70
2023/08/07 06:33:35;;;;;;;18.90;3.00;;;;;;;13.20;100.00;101438.28;5068907;28;20021;-70
2023/08/07 06:36:02;;;;;;;12.40;2.73;;;;;;;13.24;100.00;101443.09;5066723;28;20379;-70
2023/08/07 06:38:27;;;;;;;13.20;2.97;;;;;;;13.31;100.00;101453.91;5062470;28;20017;-70
2023/08/07 06:40:52;;;;;;;13.30;3.33;;;;;;;13.37;100.00;101444.38;5067639;28;20082;-70
2023/08/07 06:43:18;;;;;;;11.82;2.78;;;;;;;13.40;100.00;101446.69;5070033;28;20028;-70
2023/08/07 06:45:43;;;;;;;12.15;3.20;;;;;;;13.45;100.00;101458.50;5067925;28;20508;-70
2023/08/07 06:48:09;;;;;;;10.63;2.50;;;;;;;13.45;100.00;101455.00;5063233;28;20036;-70
2023/08/07 06:50:34;;;;;;;12.55;2.53;;;;;;;13.50;100.00;101456.13;5066016;28;20055;-70
2023/08/07 06:52:59;;;;;;;10.35;2.58;;;;;;;13.52;100.00;101462.13;5061986;28;20036;-70
2023/08/07 06:55:25;;;;;;;13.18;2.45;;;;;;;13.52;100.00;101463.97;5064166;28;20028;-70
2023/08/07 06:57:51;;;;;;;14.90;2.58;;;;;;;13.50;100.00;101460.66;5064701;28;20036;-70
2023/08/07 07:00:16;;;;;;;9.40;2.35;;;;;;;13.51;99.82;101462.31;5062203;28;20025;-70
2023/08/07 07:02:42;;;;;;;12.02;2.78;;;;;;;13.48;99.60;101476.00;5068324;28;20033;-70
2023/08/07 07:05:07;;;;;;;9.98;2.47;;;;;;;13.44;99.17;101482.69;5060530;28;20032;-70
2023/08/07 07:07:32;;;;;;;14.40;2.60;;;;;;;13.43;99.79;101486.38;5060650;28;20591;-70
2023/08/07 07:10:00;;;;;;;14.48;2.80;;;;;;;13.41;100.00;101496.38;5060245;28;20045;-70
2023/08/07 07:12:26;;;;;;;11.63;2.90;;;;;;;13.37;100.00;101501.22;5062251;28;20477;-70
2023/08/07 07:14:51;;;;;;;10.75;2.92;;;;;;;13.30;100.00;101487.75;5060048;28;20025;-70
2023/08/07 07:17:16;;;;;;;11.45;2.90;;;;;;;13.21;100.00;101503.94;5052397;28;20024;-70
2023/08/07 07:19:42;;;;;;;10.10;2.65;;;;;;;13.08;100.00;101507.13;5051507;28;20410;-70
2023/08/07 07:22:07;;;;;;;13.93;2.92;;;;;;;13.02;100.00;101497.97;5033053;28;20076;-70
2023/08/07 07:24:32;;;;;;;10.13;2.53;;;;;;;13.00;100.00;101507.97;5035211;28;20603;-70
2023/08/07 07:26:58;;;;;;;9.98;2.63;;;;;;;12.95;100.00;101509.47;5035301;28;20091;-70
2023/08/07 07:29:23;;;;;;;10.25;2.47;;;;;;;12.96;100.00;101517.31;5033926;28;20516;-70
2023/08/07 07:31:50;;;;;;;9.98;2.38;;;;;;;12.97;100.00;101520.78;5037034;28;20036;-70
2023/08/07 07:34:15;;;;;;;9.73;3.03;;;;;;;12.94;100.00;101529.13;5036098;28;20513;-70
2023/08/07 07:36:41;;;;;;;9.25;2.72;;;;;;;12.93;100.00;101544.31;5033647;28;20045;-70
2023/08/07 07:39:06;;;;;;;9.27;2.47;;;;;;;12.90;100.00;101538.47;5035823;28;20028;-70
2023/08/07 07:41:31;;;;;;;10.60;2.72;;;;;;;12.90;100.00;101531.31;5031856;28;20045;-70
2023/08/07 07:43:56;;;;;;;11.23;2.92;;;;;;;12.87;100.00;101539.66;5037007;28;20106;-69
2023/08/07 07:46:23;;;;;;;7.15;2.70;;;;;;;12.86;100.00;101534.50;5040531;28;20031;-70
2023/08/07 07:48:48;;;;;;;10.35;2.90;;;;;;;12.85;100.00;101536.31;5033002;28;20036;-70
2023/08/07 07:51:14;;;;;;;11.43;3.17;;;;;;;12.95;100.00;101536.13;5031630;28;20029;-70
2023/08/07 07:53:39;;;;;;;10.07;2.88;;;;;;;13.02;100.00;101535.31;5031321;28;20448;-70
2023/08/07 07:56:04;;;;;;;9.77;3.30;;;;;;;13.08;100.00;101531.13;5034360;28;20040;-70
2023/08/07 07:58:29;;;;;;;12.82;3.55;;;;;;;13.14;100.00;101534.94;5034810;28;20037;-70
2023/08/07 08:00:55;;;;;;;13.45;2.85;;;;;;;13.20;100.00;101534.28;5032045;28;20041;-70
2023/08/07 08:03:23;;;;;;;12.68;3.50;;;;;;;13.27;100.00;101537.94;5036469;28;20064;-70
2023/08/07 08:05:50;;;;;;;13.38;3.38;;;;;;;13.32;100.00;101538.28;5040322;28;20682;-70
2023/08/07 08:08:15;;;;;;;9.52;3.00;;;;;;;13.33;100.00;101545.28;5041622;28;20022;-70
2023/08/07 08:10:41;;;;;;;13.57;4.03;;;;;;;13.30;100.00;101534.94;5043089;28;20397;-70
2023/08/07 08:13:09;;;;;;;8.95;3.40;;;;;;;13.36;100.00;101544.94;5036308;28;20025;-70
2023/08/07 08:15:34;;;;;;;10.45;3.15;;;;;;;13.42;100.00;101546.06;5046245;28;20104;-70
2023/08/07 08:17:59;;;;;;;10.23;3.20;;;;;;;13.55;100.00;101549.84;5047617;28;20104;-70
2023/08/07 08:20:24;;;;;;;11.02;3.20;;;;;;;13.65;100.00;101549.66;5037857;28;20044;-70
2023/08/07 08:22:50;;;;;;;10.55;3.10;;;;;;;13.80;100.00;101545.22;5027973;28;20082;-70
2023/08/07 08:25:17;;;;;;;12.90;3.35;;;;;;;14.00;100.00;101542.16;5024939;28;20085;-70
2023/08/07 08:27:42;;;;;;;17.33;3.75;;;;;;;14.10;100.00;101543.56;5021261;28;20450;-70
2023/08/07 08:30:08;;;;;;;10.30;3.25;;;;;;;14.38;100.00;101559.09;5014326;28;20552;-71
2023/08/07 08:32:34;;;;;;;13.45;3.10;;;;;;;14.56;100.00;101552.47;5027006;28;20032;-70
2023/08/07 08:34:59;;;;;;;11.57;2.90;;;;;;;14.63;100.00;101543.72;5026047;28;20025;-70
2023/08/07 08:37:24;;;;;;;10.38;2.92;;;;;;;14.67;100.00;101558.41;5024854;28;20025;-70
2023/08/07 08:39:50;;;;;;;9.70;2.92;;;;;;;14.70;100.00;101558.88;5021240;28;20064;-70
2023/08/07 08:42:17;;;;;;;14.05;3.20;;;;;;;14.78;100.00;101566.00;5026773;28;20441;-71
2023/08/07 08:44:51;;;;;;;11.07;2.63;;;;;;;14.74;100.00;101559.34;5028169;28;20037;-70
2023/08/07 08:47:17;;;;;;;12.43;2.95;;;;;;;14.81;98.18;101569.16;5015246;28;20033;-70
2023/08/07 08:49:47;;;;;;;13.55;2.97;;;;;;;14.90;95.49;101566.41;5015987;28;20088;-70
2023/08/07 08:52:13;;;;;;;15.48;2.50;;;;;;;15.00;94.06;101570.47;5022324;28;20140;-70
2023/08/07 08:54:40;;;;;;;13.13;2.88;;;;;;;15.15;92.47;101573.19;5019787;28;20104;-71
2023/08/07 08:57:06;;;;;;;11.48;2.47;;;;;;;15.29;91.95;101563.50;5014575;28;20072;-70
2023/08/07 08:59:32;;;;;;;12.65;2.67;;;;;;;15.46;92.09;101564.97;5015925;28;20033;-71
2023/08/07 09:01:58;;;;;;;10.80;2.70;;;;;;;15.55;89.13;101571.06;5026381;28;20036;-70
2023/08/07 09:04:23;;;;;;;8.80;2.42;;;;;;;15.74;87.30;101575.91;5014619;28;20061;-70
2023/08/07 09:06:49;;;;;;;10.38;2.70;;;;;;;15.87;85.20;101585.94;5015328;28;20060;-70
2023/08/07 09:09:17;;;;;;;8.55;2.35;;;;;;;16.01;82.19;101580.56;5021475;28;20073;-70
2023/08/07 09:11:44;;;;;;;7.78;2.15;;;;;;;16.17;81.17;101579.50;5019410;28;20383;-70
2023/08/07 09:14:13;;;;;;;8.80;2.13;;;;;;;16.30;79.42;101586.88;5023001;28;20037;-70
2023/08/07 09:16:39;;;;;;;8.98;2.00;;;;;;;16.40;77.77;101582.84;5016928;28;20025;-69
2023/08/07 09:19:04;;;;;;;9.35;2.20;;;;;;;16.56;76.40;101584.47;5017231;28;20022;-70
2023/08/07 09:21:29;;;;;;;8.23;2.25;;;;;;;16.75;75.90;101593.72;5020682;28;20454;-69
2023/08/07 09:23:55;;;;;;;9.43;2.28;;;;;;;16.81;75.56;101595.66;5023150;28;20021;-70
2023/08/07 09:26:24;;;;;;;13.25;2.40;;;;;;;16.68;74.05;101603.56;5021405;28;20021;-69
2023/08/07 09:28:52;;;;;;;9.20;1.98;;;;;;;16.43;74.58;101598.53;5020250;28;20521;-69
2023/08/07 09:31:18;;;;;;;11.93;2.20;;;;;;;16.42;74.09;101594.22;5021063;28;20543;-70
2023/08/07 09:33:47;;;;;;;9.30;2.38;;;;;;;16.49;74.28;101606.88;5024196;28;20268;-69
2023/08/07 09:36:12;;;;;;;8.88;1.90;;;;;;;16.64;75.15;101607.63;5026158;28;20028;-69
2023/08/07 09:38:37;;;;;;;6.95;1.95;;;;;;;16.81;74.26;101605.56;5023942;28;20013;-70
2023/08/07 09:41:04;;;;;;;6.50;1.90;;;;;;;16.93;73.21;101601.31;5016090;28;20069;-69
2023/08/07 09:43:33;;;;;;;7.70;2.15;;;;;;;17.12;71.42;101608.72;5023180;28;20533;-68
2023/08/07 09:46:05;;;;;;;8.23;2.00;;;;;;;17.20;70.06;101608.56;5021716;28;20427;-70
2023/08/07 09:48:33;;;;;;;9.77;2.08;;;;;;;17.15;69.81;101607.50;5022000;28;20021;-70
2023/08/07 09:51:02;;;;;;;7.93;2.03;;;;;;;17.17;69.53;101605.44;5023061;28;20040;-70
2023/08/07 09:53:31;;;;;;;6.53;2.10;;;;;;;17.40;70.24;101605.19;5023881;28;20029;-70
2023/08/07 09:55:56;;;;;;;8.98;1.80;;;;;;;17.46;69.50;101610.59;5015229;28;20017;-69
2023/08/07 09:58:23;;;;;;;8.85;1.73;;;;;;;17.52;67.02;101612.50;5021184;28;20025;-70
2023/08/07 10:00:48;;;;;;;5.53;1.60;;;;;;;17.49;65.97;101615.56;5019820;28;20026;-69
2023/08/07 10:03:14;;;;;;;7.75;1.90;;;;;;;17.59;65.03;101616.03;5023744;28;20094;-70
2023/08/07 10:05:42;;;;;;;4.30;1.60;;;;;;;17.72;64.61;101617.19;5021343;28;20072;-70
2023/08/07 10:08:07;;;;;;;6.65;2.10;;;;;;;17.83;63.35;101624.69;5025654;28;20048;-70
2023/08/07 10:10:34;;;;;;;6.60;2.15;;;;;;;17.89;63.80;101621.19;5020237;28;20491;-70
2023/08/07 10:13:01;;;;;;;5.25;1.60;;;;;;;17.94;63.87;101626.81;5022585;28;20045;-70
2023/08/07 10:15:27;;;;;;;9.68;1.90;;;;;;;18.04;64.56;101632.66;5030670;28;20029;-70
2023/08/07 10:17:52;;;;;;;9.43;1.95;;;;;;;18.08;63.19;101625.84;5015492;28;20395;-70
2023/08/07 10:20:20;;;;;;;6.80;2.03;;;;;;;18.15;62.85;101631.22;5026774;28;20050;-70
2023/08/07 10:22:46;;;;;;;5.25;1.70;;;;;;;18.16;62.37;101625.66;5023975;28;20551;-70
2023/08/07 10:25:12;;;;;;;7.95;2.15;;;;;;;18.13;61.70;101642.19;5018706;28;20034;-70
2023/08/07 10:27:42;;;;;;;6.25;1.85;;;;;;;18.04;60.51;101632.66;5025182;28;20017;-70
2023/08/07 10:30:14;;;;;;;6.65;2.15;;;;;;;18.08;60.60;101633.06;5025484;28;20462;-70
2023/08/07 10:32:42;;;;;;;6.95;1.85;;;;;;;18.22;61.13;101635.63;5024840;28;20101;-70
2023/08/07 10:35:08;;;;;;;4.22;1.88;;;;;;;18.18;59.84;101628.97;5022279;28;20112;-70
2023/08/07 10:37:44;;;;;;;8.65;2.08;;;;;;;18.03;59.97;101635.53;5017433;28;20116;-70
2023/08/07 10:40:14;;;;;;;6.47;2.17;;;;;;;17.99;59.60;101637.78;5017777;28;20022;-70
2023/08/07 10:42:59;;;;;;;4.40;1.55;;;;;;;18.06;59.20;101638.66;5024157;28;20483;-70
2023/08/07 10:45:26;;;;;;;5.13;1.60;;;;;;;18.22;59.86;101638.31;5020560;28;20059;-70
2023/08/07 10:48:04;;;;;;;6.68;1.58;;;;;;;18.34;59.53;101638.53;5030454;28;20025;-70
2023/08/07 10:50:34;;;;;;;8.03;1.70;;;;;;;18.37;59.08;101638.13;5023210;28;20120;-70
2023/08/07 10:53:01;;;;;;;6.28;1.73;;;;;;;18.45;59.10;101650.56;5018396;28;20786;-70
2023/08/07 10:55:30;;;;;;;3.55;1.42;;;;;;;18.24;57.96;101638.94;5024164;28;20022;-70
2023/08/07 10:57:56;;;;;;;7.45;1.70;;;;;;;18.12;57.54;101648.59;5019447;28;20022;-70
2023/08/07 11:00:27;;;;;;;6.47;1.83;;;;;;;18.12;57.81;101656.66;5028068;28;20029;-69
2023/08/07 11:02:53;;;;;;;5.50;1.90;;;;;;;18.06;58.19;101648.56;5026423;28;20635;-70
2023/08/07 11:05:19;;;;;;;4.55;1.70;;;;;;;18.09;59.31;101648.16;5025196;28;20030;-70
2023/08/07 11:07:45;;;;;;;6.15;1.70;;;;;;;18.27;59.62;101643.91;5029876;28;20021;-70
2023/08/07 11:10:14;;;;;;;5.40;1.80;;;;;;;18.41;59.83;101655.53;5022865;28;20572;-70